sensor_id;sensor_type;location;lat;lon;timestamp;pressure;altitude;pressure_sealevel;temperature;humidity
14295;BME280;7231;59.370;18.016;2022-12-22T00:00:09;99693.81;;;3.64;100.00
14295;BME280;7231;59.370;18.016;2022-12-22T00:02:54;99688.66;;;3.64;100.00
14295;BME280;7231;59.370;18.016;2022-12-22T00:05:40;99586.19;;;3.03;100.00
14295;BME280;7231;59.370;18.016;2022-12-22T00:08:25;99696.38;;;3.62;100.00
14295;BME280;7231;59.370;18.016;2022-12-22T00:11:11;99686.81;;;3.61;100.00
14295;BME280;7231;59.370;18.016;2022-12-22T00:13:58;99667.44;;;3.51;100.00
14295;BME280;7231;59.370;18.016;2022-12-22T00:16:45;99686.81;;;3.61;100.00
14295;BME280;7231;59.370;18.016;2022-12-22T00:19:30;99675.19;;;3.50;100.00
14295;BME280;7231;59.370;18.016;2022-12-22T00:22:18;99686.00;;;3.62;100.00
14295;BME280;7231;59.370;18.016;2022-12-22T00:25:05;99638.56;;;3.41;100.00
14295;BME280;7231;59.370;18.016;2022-12-22T00:27:51;99670.50;;;3.64;100.00
14295;BME280;7231;59.370;18.016;2022-12-22T00:30:37;99666.09;;;3.61;100.00
14295;BME280;7231;59.370;18.016;2022-12-22T00:33:23;99660.97;;;3.63;100.00
14295;BME280;7231;59.370;18.016;2022-12-22T00:36:10;99661.84;;;3.63;100.00
14295;BME280;7231;59.370;18.016;2022-12-22T00:38:56;99659.19;;;3.62;100.00
14295;BME280;7231;59.370;18.016;2022-12-22T00:41:42;99656.59;;;3.62;100.00
14295;BME280;7231;59.370;18.016;2022-12-22T00:44:27;99641.44;;;3.48;100.00
14295;BME280;7231;59.370;18.016;2022-12-22T00:47:22;99638.91;;;3.50;100.00
14295;BME280;7231;59.370;18.016;2022-12-22T00:50:09;99583.66;;;3.05;100.00
14295;BME280;7231;59.370;18.016;2022-12-22T00:52:55;99552.25;;;2.96;100.00
14295;BME280;7231;59.370;18.016;2022-12-22T00:55:41;99671.31;;;3.63;100.00
14295;BME280;7231;59.370;18.016;2022-12-22T00:58:26;99674.75;;;3.62;100.00
14295;BME280;7231;59.370;18.016;2022-12-22T01:01:12;99667.84;;;3.62;100.00
14295;BME280;7231;59.370;18.016;2022-12-22T01:03:59;99660.97;;;3.63;100.00
14295;BME280;7231;59.370;18.016;2022-12-22T01:06:44;99657.19;;;3.54;100.00
14295;BME280;7231;59.370;18.016;2022-12-22T01:09:30;99671.22;;;3.59;100.00
14295;BME280;7231;59.370;18.016;2022-12-22T01:12:19;99666.91;;;3.60;100.00
14295;BME280;7231;59.370;18.016;2022-12-22T01:15:09;99666.03;;;3.59;100.00
14295;BME280;7231;59.370;18.016;2022-12-22T01:17:56;99629.03;;;3.40;100.00
14295;BME280;7231;59.370;18.016;2022-12-22T01:20:42;99638.00;;;3.49;100.00
14295;BME280;7231;59.370;18.016;2022-12-22T01:23:28;99603.59;;;3.30;100.00
14295;BME280;7231;59.370;18.016;2022-12-22T01:26:14;99657.31;;;3.57;100.00
14295;BME280;7231;59.370;18.016;2022-12-22T01:28:59;99657.31;;;3.57;100.00
14295;BME280;7231;59.370;18.016;2022-12-22T01:31:45;99652.97;;;3.56;100.00
14295;BME280;7231;59.370;18.016;2022-12-22T01:34:30;99656.38;;;3.55;100.00
14295;BME280;7231;59.370;18.016;2022-12-22T01:37:16;99654.66;;;3.56;100.00
14295;BME280;7231;59.370;18.016;2022-12-22T01:40:02;99641.75;;;3.57;100.00
14295;BME280;7231;59.370;18.016;2022-12-22T01:42:48;99639.22;;;3.59;100.00
14295;BME280;7231;59.370;18.016;2022-12-22T01:45:35;99634.81;;;3.56;100.00
14295;BME280;7231;59.370;18.016;2022-12-22T01:48:26;99631.41;;;3.57;100.00
14295;BME280;7231;59.370;18.016;2022-12-22T01:51:15;99636.53;;;3.56;100.00
14295;BME280;7231;59.370;18.016;2022-12-22T01:54:04;99588.22;;;3.34;100.00
14295;BME280;7231;59.370;18.016;2022-12-22T01:56:50;99622.75;;;3.57;100.00
14295;BME280;7231;59.370;18.016;2022-12-22T01:59:36;99619.28;;;3.56;100.00
14295;BME280;7231;59.370;18.016;2022-12-22T02:02:22;99530.06;;;3.02;100.00
14295;BME280;7231;59.370;18.016;2022-12-22T02:05:12;99621.03;;;3.57;100.00
14295;BME280;7231;59.370;18.016;2022-12-22T02:08:06;99611.50;;;3.56;100.00
14295;BME280;7231;59.370;18.016;2022-12-22T02:11:04;99612.31;;;3.55;100.00
14295;BME280;7231;59.370;18.016;2022-12-22T02:14:00;99617.50;;;3.55;100.00
14295;BME280;7231;59.370;18.016;2022-12-22T02:16:59;99618.38;;;3.56;100.00
14295;BME280;7231;59.370;18.016;2022-12-22T02:20:06;99615.84;;;3.57;100.00
14295;BME280;7231;59.370;18.016;2022-12-22T02:23:01;99608.91;;;3.56;100.00
14295;BME280;7231;59.370;18.016;2022-12-22T02:25:55;99604.53;;;3.55;100.00
14295;BME280;7231;59.370;18.016;2022-12-22T02:28:43;99602.91;;;3.57;100.00
14295;BME280;7231;59.370;18.016;2022-12-22T02:31:33;99592.53;;;3.57;100.00
14295;BME280;7231;59.370;18.016;2022-12-22T02:34:19;99595.19;;;3.59;100.00
14295;BME280;7231;59.370;18.016;2022-12-22T02:37:09;99600.34;;;3.59;100.00
14295;BME280;7231;59.370;18.016;2022-12-22T02:40:02;99596.06;;;3.59;100.00
14295;BME280;7231;59.370;18.016;2022-12-22T02:42:57;99598.66;;;3.59;100.00
14295;BME280;7231;59.370;18.016;2022-12-22T02:45:55;99600.19;;;3.54;100.00
14295;BME280;7231;59.370;18.016;2022-12-22T02:48:50;99573.72;;;3.39;100.00
14295;BME280;7231;59.370;18.016;2022-12-22T02:51:44;99578.09;;;3.40;100.00
14295;BME280;7231;59.370;18.016;2022-12-22T02:54:32;99594.91;;;3.51;100.00
14295;BME280;7231;59.370;18.016;2022-12-22T02:57:19;99565.78;;;3.35;100.00
14295;BME280;7231;59.370;18.016;2022-12-22T03:00:05;99584.31;;;3.45;100.00
14295;BME280;7231;59.370;18.016;2022-12-22T03:02:53;99583.44;;;3.45;100.00
14295;BME280;7231;59.370;18.016;2022-12-22T03:05:39;99581.66;;;3.44;100.00
14295;BME280;7231;59.370;18.016;2022-12-22T03:08:24;99578.13;;;3.42;100.00
14295;BME280;7231;59.370;18.016;2022-12-22T03:11:10;99577.19;;;3.40;100.00
14295;BME280;7231;59.370;18.016;2022-12-22T03:13:55;99552.56;;;3.27;100.00
14295;BME280;7231;59.370;18.016;2022-12-22T03:16:40;99571.84;;;3.35;100.00
14295;BME280;7231;59.370;18.016;2022-12-22T03:19:27;99578.69;;;3.33;100.00
14295;BME280;7231;59.370;18.016;2022-12-22T03:22:12;99573.44;;;3.32;100.00
14295;BME280;7231;59.370;18.016;2022-12-22T03:24:58;99560.34;;;3.27;100.00
14295;BME280;7231;59.370;18.016;2022-12-22T03:27:43;99570.91;;;3.33;100.00
14295;BME280;7231;59.370;18.016;2022-12-22T03:30:11;99560.50;;;3.32;100.00
14295;BME280;7231;59.370;18.016;2022-12-22T03:32:39;99556.25;;;3.34;100.00
14295;BME280;7231;59.370;18.016;2022-12-22T03:35:09;99551.03;;;3.32;100.00
14295;BME280;7231;59.370;18.016;2022-12-22T03:37:36;99549.38;;;3.34;100.00
14295;BME280;7231;59.370;18.016;2022-12-22T03:40:06;99544.19;;;3.34;100.00
14295;BME280;7231;59.370;18.016;2022-12-22T03:42:34;99540.38;;;3.24;100.00
14295;BME280;7231;59.370;18.016;2022-12-22T03:45:19;99555.25;;;3.30;100.00
14295;BME280;7231;59.370;18.016;2022-12-22T03:48:05;99539.38;;;3.21;100.00
14295;BME280;7231;59.370;18.016;2022-12-22T03:50:34;99561.38;;;3.32;100.00
14295;BME280;7231;59.370;18.016;2022-12-22T03:53:02;99480.38;;;2.88;100.00
14295;BME280;7231;59.370;18.016;2022-12-22T03:55:30;99476.03;;;2.87;100.00
14295;BME280;7231;59.370;18.016;2022-12-22T03:57:58;99555.47;;;3.36;100.00
14295;BME280;7231;59.370;18.016;2022-12-22T04:00:26;99558.03;;;3.35;100.00
14295;BME280;7231;59.370;18.016;2022-12-22T04:02:56;99564.03;;;3.34;100.00
14295;BME280;7231;59.370;18.016;2022-12-22T04:05:25;99564.91;;;3.34;100.00
14295;BME280;7231;59.370;18.016;2022-12-22T04:07:54;99561.38;;;3.32;100.00
14295;BME280;7231;59.370;18.016;2022-12-22T04:10:22;99550.91;;;3.29;100.00
14295;BME280;7231;59.370;18.016;2022-12-22T04:13:08;99545.50;;;3.23;100.00
14295;BME280;7231;59.370;18.016;2022-12-22T04:15:36;99549.75;;;3.21;100.00
14295;BME280;7231;59.370;18.016;2022-12-22T04:18:04;99549.63;;;3.18;100.00
14295;BME280;7231;59.370;18.016;2022-12-22T04:20:32;99535.69;;;3.14;100.00
14295;BME280;7231;59.370;18.016;2022-12-22T04:23:01;99494.25;;;2.90;100.00
14295;BME280;7231;59.370;18.016;2022-12-22T04:25:29;99493.38;;;2.90;100.00
14295;BME280;7231;59.370;18.016;2022-12-22T04:27:57;99488.03;;;2.85;100.00
14295;BME280;7231;59.370;18.016;2022-12-22T04:30:25;99528.47;;;3.06;100.00
14295;BME280;7231;59.370;18.016;2022-12-22T04:32:53;99530.22;;;3.07;100.00
14295;BME280;7231;59.370;18.016;2022-12-22T04:35:21;99530.19;;;3.05;100.00
14295;BME280;7231;59.370;18.016;2022-12-22T04:37:49;99520.66;;;3.04;100.00
14295;BME280;7231;59.370;18.016;2022-12-22T04:40:18;99526.72;;;3.05;100.00
14295;BME280;7231;59.370;18.016;2022-12-22T04:42:46;99427.28;;;2.52;100.00
14295;BME280;7231;59.370;18.016;2022-12-22T04:45:14;99518.94;;;3.05;100.00
14295;BME280;7231;59.370;18.016;2022-12-22T04:47:42;99525.00;;;3.05;100.00
14295;BME280;7231;59.370;18.016;2022-12-22T04:50:10;99517.22;;;3.05;100.00
14295;BME280;7231;59.370;18.016;2022-12-22T04:52:38;99522.41;;;3.05;100.00
14295;BME280;7231;59.370;18.016;2022-12-22T04:55:07;99531.00;;;3.04;100.00
14295;BME280;7231;59.370;18.016;2022-12-22T04:57:36;99414.19;;;2.47;100.00
14295;BME280;7231;59.370;18.016;2022-12-22T05:00:08;99513.75;;;3.05;100.00
14295;BME280;7231;59.370;18.016;2022-12-22T05:02:36;99500.53;;;2.97;100.00
14295;BME280;7231;59.370;18.016;2022-12-22T05:05:05;99509.47;;;3.05;100.00
14295;BME280;7231;59.370;18.016;2022-12-22T05:07:33;99481.25;;;2.89;100.00
14295;BME280;7231;59.370;18.016;2022-12-22T05:10:02;99507.88;;;3.09;100.00
14295;BME280;7231;59.370;18.016;2022-12-22T05:12:30;99507.09;;;3.11;100.00
14295;BME280;7231;59.370;18.016;2022-12-22T05:15:17;99512.34;;;3.13;100.00
14295;BME280;7231;59.370;18.016;2022-12-22T05:17:45;99434.88;;;2.71;100.00
14295;BME280;7231;59.370;18.016;2022-12-22T05:20:13;99508.16;;;3.16;100.00
14295;BME280;7231;59.370;18.016;2022-12-22T05:22:41;99521.09;;;3.16;100.00
14295;BME280;7231;59.370;18.016;2022-12-22T05:25:09;99515.09;;;3.17;100.00
14295;BME280;7231;59.370;18.016;2022-12-22T05:27:37;99509.03;;;3.17;100.00
14295;BME280;7231;59.370;18.016;2022-12-22T05:30:06;99446.50;;;2.82;100.00
14295;BME280;7231;59.370;18.016;2022-12-22T05:32:36;99481.03;;;3.07;100.00
14295;BME280;7231;59.370;18.016;2022-12-22T05:35:04;99463.25;;;2.92;100.00
14295;BME280;7231;59.370;18.016;2022-12-22T05:37:33;99495.97;;;3.14;100.00
14295;BME280;7231;59.370;18.016;2022-12-22T05:40:02;99501.53;;;3.24;100.00
14295;BME280;7231;59.370;18.016;2022-12-22T05:42:30;99502.34;;;3.23;100.00
14295;BME280;7231;59.370;18.016;2022-12-22T05:45:06;99439.94;;;2.92;100.00
14295;BME280;7231;59.370;18.016;2022-12-22T05:47:36;99479.81;;;3.21;100.00
14295;BME280;7231;59.370;18.016;2022-12-22T05:50:05;99494.47;;;3.20;100.00
14295;BME280;7231;59.370;18.016;2022-12-22T05:52:34;99470.91;;;3.13;100.00
14295;BME280;7231;59.370;18.016;2022-12-22T05:55:02;99488.53;;;3.23;100.00
14295;BME280;7231;59.370;18.016;2022-12-22T05:57:31;99486.00;;;3.24;100.00
14295;BME280;7231;59.370;18.016;2022-12-22T05:59:59;99480.69;;;3.21;100.00
14295;BME280;7231;59.370;18.016;2022-12-22T06:02:27;99380.13;;;2.59;100.00
14295;BME280;7231;59.370;18.016;2022-12-22T06:04:56;99485.88;;;3.21;100.00
14295;BME280;7231;59.370;18.016;2022-12-22T06:07:24;99465.41;;;3.04;100.00
14295;BME280;7231;59.370;18.016;2022-12-22T06:09:52;99495.34;;;3.21;100.00
14295;BME280;7231;59.370;18.016;2022-12-22T06:12:20;99496.25;;;3.21;100.00
14295;BME280;7231;59.370;18.016;2022-12-22T06:14:49;99496.19;;;3.20;100.00
14295;BME280;7231;59.370;18.016;2022-12-22T06:17:17;99503.94;;;3.20;100.00
14295;BME280;7231;59.370;18.016;2022-12-22T06:19:45;99498.78;;;3.20;100.00
14295;BME280;7231;59.370;18.016;2022-12-22T06:22:14;99506.53;;;3.20;100.00
14295;BME280;7231;59.370;18.016;2022-12-22T06:24:42;99500.47;;;3.19;100.00
14295;BME280;7231;59.370;18.016;2022-12-22T06:27:10;99511.78;;;3.21;100.00
14295;BME280;7231;59.370;18.016;2022-12-22T06:29:38;99506.53;;;3.20;100.00
14295;BME280;7231;59.370;18.016;2022-12-22T06:32:06;99495.31;;;3.19;100.00
14295;BME280;7231;59.370;18.016;2022-12-22T06:34:34;99497.06;;;3.20;100.00
14295;BME280;7231;59.370;18.016;2022-12-22T06:37:02;99471.78;;;3.13;100.00
14295;BME280;7231;59.370;18.016;2022-12-22T06:39:31;99484.34;;;3.26;100.00
14295;BME280;7231;59.370;18.016;2022-12-22T06:41:59;99413.91;;;2.87;100.00
14295;BME280;7231;59.370;18.016;2022-12-22T06:44:45;99474.53;;;3.18;100.00
14295;BME280;7231;59.370;18.016;2022-12-22T06:47:12;99494.53;;;3.22;100.00
14295;BME280;7231;59.370;18.016;2022-12-22T06:49:40;99490.28;;;3.24;100.00
14295;BME280;7231;59.370;18.016;2022-12-22T06:52:08;99503.28;;;3.25;100.00
14295;BME280;7231;59.370;18.016;2022-12-22T06:54:38;99508.53;;;3.27;100.00
14295;BME280;7231;59.370;18.016;2022-12-22T06:57:06;99427.59;;;2.85;100.00
14295;BME280;7231;59.370;18.016;2022-12-22T06:59:34;99513.81;;;3.30;100.00
14295;BME280;7231;59.370;18.016;2022-12-22T07:02:02;99511.28;;;3.32;100.00
14295;BME280;7231;59.370;18.016;2022-12-22T07:04:30;99499.16;;;3.31;100.00
14295;BME280;7231;59.370;18.016;2022-12-22T07:06:58;99491.38;;;3.31;100.00
14295;BME280;7231;59.370;18.016;2022-12-22T07:09:26;99483.63;;;3.31;100.00
14295;BME280;7231;59.370;18.016;2022-12-22T07:11:55;99425.47;;;2.97;100.00
14295;BME280;7231;59.370;18.016;2022-12-22T07:14:23;99485.22;;;3.27;100.00
14295;BME280;7231;59.370;18.016;2022-12-22T07:16:51;99410.97;;;2.78;100.00
14295;BME280;7231;59.370;18.016;2022-12-22T07:19:19;99503.34;;;3.27;100.00
14295;BME280;7231;59.370;18.016;2022-12-22T07:21:47;99458.44;;;3.03;100.00
14295;BME280;7231;59.370;18.016;2022-12-22T07:24:16;99496.47;;;3.28;100.00
14295;BME280;7231;59.370;18.016;2022-12-22T07:26:49;99492.97;;;3.27;100.00
14295;BME280;7231;59.370;18.016;2022-12-22T07:29:18;99416.00;;;2.74;100.00
14295;BME280;7231;59.370;18.016;2022-12-22T07:31:46;99501.41;;;3.21;100.00
14295;BME280;7231;59.370;18.016;2022-12-22T07:34:15;99492.81;;;3.22;100.00
14295;BME280;7231;59.370;18.016;2022-12-22T07:36:42;99498.88;;;3.23;100.00
14295;BME280;7231;59.370;18.016;2022-12-22T07:39:11;99501.53;;;3.24;100.00
14295;BME280;7231;59.370;18.016;2022-12-22T07:41:39;99477.00;;;3.15;100.00
14295;BME280;7231;59.370;18.016;2022-12-22T07:44:26;99490.41;;;3.27;100.00
14295;BME280;7231;59.370;18.016;2022-12-22T07:46:54;99486.16;;;3.29;100.00
14295;BME280;7231;59.370;18.016;2022-12-22T07:49:22;99483.56;;;3.29;100.00
14295;BME280;7231;59.370;18.016;2022-12-22T07:52:07;99481.91;;;3.31;100.00
14295;BME280;7231;59.370;18.016;2022-12-22T07:54:35;99478.50;;;3.32;100.00
14295;BME280;7231;59.370;18.016;2022-12-22T07:57:07;99481.19;;;3.35;100.00
14295;BME280;7231;59.370;18.016;2022-12-22T07:59:37;99479.53;;;3.37;100.00
14295;BME280;7231;59.370;18.016;2022-12-22T08:02:05;99480.41;;;3.38;100.00
14295;BME280;7231;59.370;18.016;2022-12-22T08:04:33;99477.00;;;3.39;100.00
14295;BME280;7231;59.370;18.016;2022-12-22T08:07:01;99475.28;;;3.39;100.00
14295;BME280;7231;59.370;18.016;2022-12-22T08:09:29;99474.41;;;3.39;100.00
14295;BME280;7231;59.370;18.016;2022-12-22T08:11:57;99469.28;;;3.40;100.00
14295;BME280;7231;59.370;18.016;2022-12-22T08:14:25;99469.28;;;3.40;100.00
14295;BME280;7231;59.370;18.016;2022-12-22T08:16:54;99466.72;;;3.42;100.00
14295;BME280;7231;59.370;18.016;2022-12-22T08:19:22;99466.69;;;3.40;100.00
14295;BME280;7231;59.370;18.016;2022-12-22T08:21:50;99464.91;;;3.39;100.00
14295;BME280;7231;59.370;18.016;2022-12-22T08:24:19;99458.91;;;3.40;100.00
14295;BME280;7231;59.370;18.016;2022-12-22T08:26:49;99464.19;;;3.43;100.00
14295;BME280;7231;59.370;18.016;2022-12-22T08:29:21;99472.75;;;3.41;100.00
14295;BME280;7231;59.370;18.016;2022-12-22T08:31:50;99471.84;;;3.40;100.00
14295;BME280;7231;59.370;18.016;2022-12-22T08:34:20;99463.25;;;3.41;100.00
14295;BME280;7231;59.370;18.016;2022-12-22T08:36:51;99461.56;;;3.42;100.00
14295;BME280;7231;59.370;18.016;2022-12-22T08:39:21;99463.38;;;3.44;100.00
14295;BME280;7231;59.370;18.016;2022-12-22T08:41:50;99463.47;;;3.47;100.00
14295;BME280;7231;59.370;18.016;2022-12-22T08:44:21;99448.81;;;3.48;100.00
14295;BME280;7231;59.370;18.016;2022-12-22T08:46:50;99415.94;;;3.21;100.00
14295;BME280;7231;59.370;18.016;2022-12-22T08:49:20;99438.13;;;3.39;100.00
14295;BME280;7231;59.370;18.016;2022-12-22T08:51:48;99457.56;;;3.51;100.00
14295;BME280;7231;59.370;18.016;2022-12-22T08:54:16;99462.75;;;3.51;100.00
14295;BME280;7231;59.370;18.016;2022-12-22T08:56:44;99455.03;;;3.53;100.00
14295;BME280;7231;59.370;18.016;2022-12-22T08:59:12;99426.00;;;3.38;100.00
14295;BME280;7231;59.370;18.016;2022-12-22T09:01:42;99463.88;;;3.59;100.00
14295;BME280;7231;59.370;18.016;2022-12-22T09:04:13;99427.97;;;3.45;100.00
14295;BME280;7231;59.370;18.016;2022-12-22T09:06:43;99464.28;;;3.72;100.00
14295;BME280;7231;59.370;18.016;2022-12-22T09:09:12;99375.53;;;3.26;100.00
14295;BME280;7231;59.370;18.016;2022-12-22T09:11:41;99460.09;;;3.75;100.00
14295;BME280;7231;59.370;18.016;2022-12-22T09:14:10;99433.66;;;3.60;100.00
14295;BME280;7231;59.370;18.016;2022-12-22T09:16:39;99452.38;;;3.77;100.00
14295;BME280;7231;59.370;18.016;2022-12-22T09:19:07;99451.59;;;3.79;100.00
14295;BME280;7231;59.370;18.016;2022-12-22T09:21:36;99417.34;;;3.63;100.00
14295;BME280;7231;59.370;18.016;2022-12-22T09:24:06;99453.44;;;3.83;100.00
14295;BME280;7231;59.370;18.016;2022-12-22T09:26:34;99398.16;;;3.57;100.00
14295;BME280;7231;59.370;18.016;2022-12-22T09:29:03;99456.38;;;3.94;100.00
14295;BME280;7231;59.370;18.016;2022-12-22T09:31:31;99454.81;;;3.99;100.00
14295;BME280;7231;59.370;18.016;2022-12-22T09:33:59;99455.78;;;4.03;100.00
14295;BME280;7231;59.370;18.016;2022-12-22T09:36:29;99450.75;;;4.07;100.00
14295;BME280;7231;59.370;18.016;2022-12-22T09:38:57;99441.94;;;4.02;100.00
14295;BME280;7231;59.370;18.016;2022-12-22T09:41:29;99402.28;;;3.78;100.00
14295;BME280;7231;59.370;18.016;2022-12-22T09:44:01;99450.66;;;4.04;100.00
14295;BME280;7231;59.370;18.016;2022-12-22T09:46:32;99444.69;;;4.07;100.00
14295;BME280;7231;59.370;18.016;2022-12-22T09:49:01;99442.22;;;4.11;100.00
14295;BME280;7231;59.370;18.016;2022-12-22T09:51:30;99437.97;;;4.13;100.00
14295;BME280;7231;59.370;18.016;2022-12-22T09:54:00;99437.03;;;4.11;100.00
14295;BME280;7231;59.370;18.016;2022-12-22T09:56:30;99363.25;;;3.73;100.00
14295;BME280;7231;59.370;18.016;2022-12-22T09:58:59;99304.09;;;3.33;100.00
14295;BME280;7231;59.370;18.016;2022-12-22T10:01:36;99419.44;;;4.01;100.00
14295;BME280;7231;59.370;18.016;2022-12-22T10:04:13;99436.13;;;4.09;100.00
14295;BME280;7231;59.370;18.016;2022-12-22T10:06:47;99410.44;;;3.90;100.00
14295;BME280;7231;59.370;18.016;2022-12-22T10:09:19;99339.09;;;3.47;100.00
14295;BME280;7231;59.370;18.016;2022-12-22T10:12:14;99434.22;;;4.04;100.00
14295;BME280;7231;59.370;18.016;2022-12-22T10:14:44;99436.84;;;4.05;100.00
14295;BME280;7231;59.370;18.016;2022-12-22T10:17:14;99429.06;;;4.05;100.00
14295;BME280;7231;59.370;18.016;2022-12-22T10:19:43;99422.22;;;4.07;100.00
14295;BME280;7231;59.370;18.016;2022-12-22T10:22:20;99317.41;;;3.44;100.00
14295;BME280;7231;59.370;18.016;2022-12-22T10:24:49;99427.31;;;4.04;100.00
14295;BME280;7231;59.370;18.016;2022-12-22T10:27:20;99422.03;;;4.01;100.00
14295;BME280;7231;59.370;18.016;2022-12-22T10:30:18;99417.69;;;4.00;100.00
14295;BME280;7231;59.370;18.016;2022-12-22T10:33:03;99390.19;;;3.78;100.00
14295;BME280;7231;59.370;18.016;2022-12-22T10:35:43;99393.47;;;3.73;100.00
14295;BME280;7231;59.370;18.016;2022-12-22T10:38:16;99395.13;;;3.71;100.00
14295;BME280;7231;59.370;18.016;2022-12-22T10:40:48;99424.19;;;3.87;100.00
14295;BME280;7231;59.370;18.016;2022-12-22T10:43:27;99429.31;;;3.86;100.00
14295;BME280;7231;59.370;18.016;2022-12-22T10:45:56;99349.06;;;3.35;100.00
14295;BME280;7231;59.370;18.016;2022-12-22T10:48:27;99419.88;;;3.88;100.00
14295;BME280;7231;59.370;18.016;2022-12-22T10:50:56;99419.97;;;3.91;100.00
14295;BME280;7231;59.370;18.016;2022-12-22T10:53:43;99413.13;;;3.93;100.00
14295;BME280;7231;59.370;18.016;2022-12-22T10:56:23;99416.59;;;3.94;100.00
14295;BME280;7231;59.370;18.016;2022-12-22T10:58:56;99343.41;;;3.47;100.00
14295;BME280;7231;59.370;18.016;2022-12-22T11:01:32;99337.25;;;3.43;100.00
14295;BME280;7231;59.370;18.016;2022-12-22T11:04:15;99371.81;;;3.71;100.00
14295;BME280;7231;59.370;18.016;2022-12-22T11:06:44;99406.91;;;3.88;100.00
14295;BME280;7231;59.370;18.016;2022-12-22T11:09:12;99415.53;;;3.87;100.00
14295;BME280;7231;59.370;18.016;2022-12-22T11:12:04;99402.47;;;3.84;100.00
14295;BME280;7231;59.370;18.016;2022-12-22T11:14:47;99390.88;;;3.73;100.00
14295;BME280;7231;59.370;18.016;2022-12-22T11:17:25;99413.72;;;3.84;100.00
14295;BME280;7231;59.370;18.016;2022-12-22T11:20:06;99373.47;;;3.69;100.00
14295;BME280;7231;59.370;18.016;2022-12-22T11:22:48;99344.47;;;3.53;100.00
14295;BME280;7231;59.370;18.016;2022-12-22T11:25:26;99316.31;;;3.37;100.00
14295;BME280;7231;59.370;18.016;2022-12-22T11:28:11;99402.66;;;3.90;100.00
14295;BME280;7231;59.370;18.016;2022-12-22T11:30:53;99315.44;;;3.37;100.00
14295;BME280;7231;59.370;18.016;2022-12-22T11:33:34;99370.06;;;3.70;100.00
14295;BME280;7231;59.370;18.016;2022-12-22T11:36:05;99401.69;;;3.86;100.00
14295;BME280;7231;59.370;18.016;2022-12-22T11:38:46;99401.63;;;3.85;100.00
14295;BME280;7231;59.370;18.016;2022-12-22T11:41:37;99399.88;;;3.84;100.00
14295;BME280;7231;59.370;18.016;2022-12-22T11:44:21;99411.88;;;3.80;100.00
14295;BME280;7231;59.370;18.016;2022-12-22T11:47:02;99395.38;;;3.78;100.00
14295;BME280;7231;59.370;18.016;2022-12-22T11:49:44;99397.00;;;3.75;100.00
14295;BME280;7231;59.370;18.016;2022-12-22T11:52:32;99399.53;;;3.73;100.00
14295;BME280;7231;59.370;18.016;2022-12-22T11:55:14;99391.63;;;3.69;100.00
14295;BME280;7231;59.370;18.016;2022-12-22T11:57:52;99396.81;;;3.69;100.00
14295;BME280;7231;59.370;18.016;2022-12-22T12:00:22;99393.28;;;3.67;100.00
14295;BME280;7231;59.370;18.016;2022-12-22T12:03:37;99391.41;;;3.63;100.00
14295;BME280;7231;59.370;18.016;2022-12-22T12:06:23;99390.50;;;3.61;100.00
14295;BME280;7231;59.370;18.016;2022-12-22T12:09:04;99396.50;;;3.59;100.00
14295;BME280;7231;59.370;18.016;2022-12-22T12:11:37;99389.50;;;3.57;100.00
14295;BME280;7231;59.370;18.016;2022-12-22T12:14:16;99384.28;;;3.55;100.00
14295;BME280;7231;59.370;18.016;2022-12-22T12:16:50;99347.16;;;3.30;100.00
14295;BME280;7231;59.370;18.016;2022-12-22T12:20:02;99308.34;;;3.04;100.00
14295;BME280;7231;59.370;18.016;2022-12-22T12:22:48;99397.22;;;3.55;100.00
14295;BME280;7231;59.370;18.016;2022-12-22T12:25:27;99304.88;;;3.04;100.00
14295;BME280;7231;59.370;18.016;2022-12-22T12:28:06;99394.84;;;3.62;100.00
14295;BME280;7231;59.370;18.016;2022-12-22T12:30:44;99388.03;;;3.65;100.00
14295;BME280;7231;59.370;18.016;2022-12-22T12:33:17;99393.28;;;3.67;100.00
14295;BME280;7231;59.370;18.016;2022-12-22T12:35:55;99328.25;;;3.32;100.00
14295;BME280;7231;59.370;18.016;2022-12-22T12:38:32;99332.66;;;3.35;100.00
14295;BME280;7231;59.370;18.016;2022-12-22T12:41:26;99384.81;;;3.72;100.00
14295;BME280;7231;59.370;18.016;2022-12-22T12:43:58;99387.47;;;3.74;100.00
14295;BME280;7231;59.370;18.016;2022-12-22T12:46:48;99381.50;;;3.76;100.00
14295;BME280;7231;59.370;18.016;2022-12-22T12:49:51;99382.31;;;3.75;100.00
14295;BME280;7231;59.370;18.016;2022-12-22T12:55:30;99369.84;;;3.64;100.00
14295;BME280;7231;59.370;18.016;2022-12-22T12:58:00;99253.09;;;3.04;100.00
14295;BME280;7231;59.370;18.016;2022-12-22T13:00:50;99383.41;;;3.82;100.00
14295;BME280;7231;59.370;18.016;2022-12-22T13:03:38;99376.50;;;3.82;100.00
14295;BME280;7231;59.370;18.016;2022-12-22T13:06:49;99382.59;;;3.84;100.00
14295;BME280;7231;59.370;18.016;2022-12-22T13:09:20;99376.53;;;3.84;100.00
14295;BME280;7231;59.370;18.016;2022-12-22T13:12:33;99381.81;;;3.87;100.00
14295;BME280;7231;59.370;18.016;2022-12-22T13:15:29;99388.78;;;3.88;100.00
14295;BME280;7231;59.370;18.016;2022-12-22T13:17:58;99388.00;;;3.90;100.00
14295;BME280;7231;59.370;18.016;2022-12-22T13:20:29;99332.53;;;3.58;100.00
14295;BME280;7231;59.370;18.016;2022-12-22T13:22:59;99390.69;;;3.94;100.00
14295;BME280;7231;59.370;18.016;2022-12-22T13:25:38;99391.50;;;3.92;100.00
14295;BME280;7231;59.370;18.016;2022-12-22T13:28:14;99388.03;;;3.92;100.00
14295;BME280;7231;59.370;18.016;2022-12-22T13:30:46;99383.72;;;3.92;100.00
14295;BME280;7231;59.370;18.016;2022-12-22T13:33:16;99384.59;;;3.93;100.00
14295;BME280;7231;59.370;18.016;2022-12-22T13:35:46;99376.94;;;3.96;100.00
14295;BME280;7231;59.370;18.016;2022-12-22T13:38:28;99367.53;;;4.00;100.00
14295;BME280;7231;59.370;18.016;2022-12-22T13:40:58;99352.47;;;3.88;100.00
14295;BME280;7231;59.370;18.016;2022-12-22T13:43:28;99290.84;;;3.51;100.00
14295;BME280;7231;59.370;18.016;2022-12-22T13:45:58;99362.06;;;3.90;100.00
14295;BME280;7231;59.370;18.016;2022-12-22T13:48:34;99374.53;;;4.02;100.00
14295;BME280;7231;59.370;18.016;2022-12-22T13:51:16;99382.31;;;4.02;100.00